sensor_id;sensor_type;location;lat;lon;timestamp;temperature;humidity
65040;HTU21D;51606;45.000;38.612;2023-09-30T00:01:27;15.15;53.91
65040;HTU21D;51606;45.000;38.612;2023-09-30T00:03:53;15.11;54.00
65040;HTU21D;51606;45.000;38.612;2023-09-30T00:06:19;15.03;54.10
65040;HTU21D;51606;45.000;38.612;2023-09-30T00:08:46;15.00;54.19
65040;HTU21D;51606;45.000;38.612;2023-09-30T00:11:15;14.95;54.31
65040;HTU21D;51606;45.000;38.612;2023-09-30T00:13:43;14.87;54.35
65040;HTU21D;51606;45.000;38.612;2023-09-30T00:16:09;14.79;54.47
65040;HTU21D;51606;45.000;38.612;2023-09-30T00:18:36;14.72;54.60
65040;HTU21D;51606;45.000;38.612;2023-09-30T00:21:02;14.68;54.66
65040;HTU21D;51606;45.000;38.612;2023-09-30T00:23:28;14.62;54.74
65040;HTU21D;51606;45.000;38.612;2023-09-30T00:25:55;14.56;54.84
65040;HTU21D;51606;45.000;38.612;2023-09-30T00:28:22;14.51;54.94
65040;HTU21D;51606;45.000;38.612;2023-09-30T00:30:48;14.48;54.96
65040;HTU21D;51606;45.000;38.612;2023-09-30T00:33:16;14.42;55.01
65040;HTU21D;51606;45.000;38.612;2023-09-30T00:35:42;14.37;55.08
65040;HTU21D;51606;45.000;38.612;2023-09-30T00:38:09;14.32;55.14
65040;HTU21D;51606;45.000;38.612;2023-09-30T00:40:36;14.28;55.22
65040;HTU21D;51606;45.000;38.612;2023-09-30T00:43:03;14.24;55.29
65040;HTU21D;51606;45.000;38.612;2023-09-30T00:45:30;14.21;55.34
65040;HTU21D;51606;45.000;38.612;2023-09-30T00:47:57;14.19;55.38
65040;HTU21D;51606;45.000;38.612;2023-09-30T00:50:23;14.15;55.43
65040;HTU21D;51606;45.000;38.612;2023-09-30T00:52:50;14.12;55.45
65040;HTU21D;51606;45.000;38.612;2023-09-30T00:55:17;14.10;55.49
65040;HTU21D;51606;45.000;38.612;2023-09-30T00:57:45;14.08;55.52
65040;HTU21D;51606;45.000;38.612;2023-09-30T01:00:13;14.06;55.52
65040;HTU21D;51606;45.000;38.612;2023-09-30T01:02:40;14.05;55.53
65040;HTU21D;51606;45.000;38.612;2023-09-30T01:05:08;14.05;55.56
65040;HTU21D;51606;45.000;38.612;2023-09-30T01:07:35;14.05;55.55
65040;HTU21D;51606;45.000;38.612;2023-09-30T01:10:02;14.01;55.59
65040;HTU21D;51606;45.000;38.612;2023-09-30T01:12:29;14.00;55.66
65040;HTU21D;51606;45.000;38.612;2023-09-30T01:14:59;13.98;55.74
65040;HTU21D;51606;45.000;38.612;2023-09-30T01:17:30;13.98;55.69
65040;HTU21D;51606;45.000;38.612;2023-09-30T01:19:57;13.93;55.81
65040;HTU21D;51606;45.000;38.612;2023-09-30T01:22:26;13.84;55.91
65040;HTU21D;51606;45.000;38.612;2023-09-30T01:24:54;13.79;56.03
65040;HTU21D;51606;45.000;38.612;2023-09-30T01:27:21;13.74;56.12
65040;HTU21D;51606;45.000;38.612;2023-09-30T01:29:47;13.70;56.19
65040;HTU21D;51606;45.000;38.612;2023-09-30T01:32:16;13.69;56.22
65040;HTU21D;51606;45.000;38.612;2023-09-30T01:34:42;13.68;56.26
65040;HTU21D;51606;45.000;38.612;2023-09-30T01:37:10;13.66;56.28
65040;HTU21D;51606;45.000;38.612;2023-09-30T01:39:36;13.64;56.33
65040;HTU21D;51606;45.000;38.612;2023-09-30T01:42:02;13.63;56.37
65040;HTU21D;51606;45.000;38.612;2023-09-30T01:44:32;13.62;56.38
65040;HTU21D;51606;45.000;38.612;2023-09-30T01:46:59;13.59;56.45
65040;HTU21D;51606;45.000;38.612;2023-09-30T01:49:26;13.53;56.54
65040;HTU21D;51606;45.000;38.612;2023-09-30T01:51:54;13.50;56.64
65040;HTU21D;51606;45.000;38.612;2023-09-30T01:54:21;13.47;56.68
65040;HTU21D;51606;45.000;38.612;2023-09-30T01:56:47;13.45;56.73
65040;HTU21D;51606;45.000;38.612;2023-09-30T01:59:13;13.41;56.77
65040;HTU21D;51606;45.000;38.612;2023-09-30T02:12:41;13.27;56.48
65040;HTU21D;51606;45.000;38.612;2023-09-30T02:15:09;13.25;56.62
65040;HTU21D;51606;45.000;38.612;2023-09-30T02:17:35;13.24;56.71
65040;HTU21D;51606;45.000;38.612;2023-09-30T02:20:02;13.24;56.79
65040;HTU21D;51606;45.000;38.612;2023-09-30T02:22:33;13.24;56.83
65040;HTU21D;51606;45.000;38.612;2023-09-30T02:25:02;13.24;56.90
65040;HTU21D;51606;45.000;38.612;2023-09-30T02:27:34;13.22;56.93
65040;HTU21D;51606;45.000;38.612;2023-09-30T02:30:00;13.20;57.01
65040;HTU21D;51606;45.000;38.612;2023-09-30T02:32:28;13.18;57.09
65040;HTU21D;51606;45.000;38.612;2023-09-30T02:34:54;13.15;57.18
65040;HTU21D;51606;45.000;38.612;2023-09-30T02:37:21;13.12;57.26
65040;HTU21D;51606;45.000;38.612;2023-09-30T02:39:47;13.11;57.32
65040;HTU21D;51606;45.000;38.612;2023-09-30T02:42:14;13.10;57.33
65040;HTU21D;51606;45.000;38.612;2023-09-30T02:44:43;13.10;57.37
65040;HTU21D;51606;45.000;38.612;2023-09-30T02:47:12;13.09;57.44
65040;HTU21D;51606;45.000;38.612;2023-09-30T02:49:38;13.08;57.49
65040;HTU21D;51606;45.000;38.612;2023-09-30T02:52:05;13.05;57.58
65040;HTU21D;51606;45.000;38.612;2023-09-30T02:54:31;13.02;57.67
65040;HTU21D;51606;45.000;38.612;2023-09-30T02:56:58;12.99;57.76
65040;HTU21D;51606;45.000;38.612;2023-09-30T02:59:24;12.94;57.84
65040;HTU21D;51606;45.000;38.612;2023-09-30T03:01:51;12.92;57.90
65040;HTU21D;51606;45.000;38.612;2023-09-30T03:04:17;12.90;57.93
65040;HTU21D;51606;45.000;38.612;2023-09-30T03:06:46;12.89;57.97
65040;HTU21D;51606;45.000;38.612;2023-09-30T03:09:17;12.89;57.96
65040;HTU21D;51606;45.000;38.612;2023-09-30T03:11:43;12.89;57.98
65040;HTU21D;51606;45.000;38.612;2023-09-30T03:14:10;12.89;58.03
65040;HTU21D;51606;45.000;38.612;2023-09-30T03:16:37;12.87;58.07
65040;HTU21D;51606;45.000;38.612;2023-09-30T03:19:04;12.88;58.09
65040;HTU21D;51606;45.000;38.612;2023-09-30T03:21:31;12.91;58.09
65040;HTU21D;51606;45.000;38.612;2023-09-30T03:23:58;12.94;58.08
65040;HTU21D;51606;45.000;38.612;2023-09-30T03:26:24;12.94;58.09
65040;HTU21D;51606;45.000;38.612;2023-09-30T03:28:50;12.94;58.12
65040;HTU21D;51606;45.000;38.612;2023-09-30T03:31:20;12.96;58.19
65040;HTU21D;51606;45.000;38.612;2023-09-30T03:33:50;13.00;58.17
65040;HTU21D;51606;45.000;38.612;2023-09-30T03:36:22;13.03;58.13
65040;HTU21D;51606;45.000;38.612;2023-09-30T03:38:52;13.07;58.16
65040;HTU21D;51606;45.000;38.612;2023-09-30T03:41:25;13.12;58.11
65040;HTU21D;51606;45.000;38.612;2023-09-30T03:43:53;13.19;58.09
65040;HTU21D;51606;45.000;38.612;2023-09-30T03:46:20;13.25;58.09
65040;HTU21D;51606;45.000;38.612;2023-09-30T03:48:46;13.34;58.06
65040;HTU21D;51606;45.000;38.612;2023-09-30T03:51:13;13.43;58.04
65040;HTU21D;51606;45.000;38.612;2023-09-30T03:53:43;13.50;58.01
65040;HTU21D;51606;45.000;38.612;2023-09-30T03:56:11;13.59;57.94
65040;HTU21D;51606;45.000;38.612;2023-09-30T03:58:41;13.69;57.97
65040;HTU21D;51606;45.000;38.612;2023-09-30T04:01:09;13.78;57.85
65040;HTU21D;51606;45.000;38.612;2023-09-30T04:03:43;13.89;57.76
65040;HTU21D;51606;45.000;38.612;2023-09-30T04:06:09;13.95;57.72
65040;HTU21D;51606;45.000;38.612;2023-09-30T04:08:36;14.07;57.68
65040;HTU21D;51606;45.000;38.612;2023-09-30T04:11:03;14.18;57.63
65040;HTU21D;51606;45.000;38.612;2023-09-30T04:13:29;14.27;57.57
65040;HTU21D;51606;45.000;38.612;2023-09-30T04:15:56;14.38;57.53
65040;HTU21D;51606;45.000;38.612;2023-09-30T04:18:24;14.51;57.48
65040;HTU21D;51606;45.000;38.612;2023-09-30T04:20:52;14.63;57.45
65040;HTU21D;51606;45.000;38.612;2023-09-30T04:23:19;14.75;57.38
65040;HTU21D;51606;45.000;38.612;2023-09-30T04:25:46;14.92;57.28
65040;HTU21D;51606;45.000;38.612;2023-09-30T04:28:13;15.10;57.12
65040;HTU21D;51606;45.000;38.612;2023-09-30T04:30:41;15.27;56.98
65040;HTU21D;51606;45.000;38.612;2023-09-30T04:33:08;15.40;56.95
65040;HTU21D;51606;45.000;38.612;2023-09-30T04:35:35;15.57;56.93
65040;HTU21D;51606;45.000;38.612;2023-09-30T04:38:04;16.06;56.48
65040;HTU21D;51606;45.000;38.612;2023-09-30T04:40:33;16.66;55.73
65040;HTU21D;51606;45.000;38.612;2023-09-30T04:43:00;17.14;55.18
65040;HTU21D;51606;45.000;38.612;2023-09-30T04:45:26;17.50;54.84
65040;HTU21D;51606;45.000;38.612;2023-09-30T04:48:02;17.66;54.86
65040;HTU21D;51606;45.000;38.612;2023-09-30T04:50:29;17.78;55.07
65040;HTU21D;51606;45.000;38.612;2023-09-30T04:52:56;18.17;55.05
65040;HTU21D;51606;45.000;38.612;2023-09-30T04:55:26;18.56;54.68
65040;HTU21D;51606;45.000;38.612;2023-09-30T04:57:52;18.95;54.51
65040;HTU21D;51606;45.000;38.612;2023-09-30T05:00:20;19.44;54.23
65040;HTU21D;51606;45.000;38.612;2023-09-30T05:02:52;20.05;53.75
65040;HTU21D;51606;45.000;38.612;2023-09-30T05:05:18;20.65;53.32
65040;HTU21D;51606;45.000;38.612;2023-09-30T05:23:52;25.51;49.62
65040;HTU21D;51606;45.000;38.612;2023-09-30T05:26:19;25.93;49.18
65040;HTU21D;51606;45.000;38.612;2023-09-30T05:28:45;26.19;48.97
65040;HTU21D;51606;45.000;38.612;2023-09-30T05:31:12;26.47;48.67
65040;HTU21D;51606;45.000;38.612;2023-09-30T05:33:38;26.80;48.28
65040;HTU21D;51606;45.000;38.612;2023-09-30T05:36:05;27.31;47.63
65040;HTU21D;51606;45.000;38.612;2023-09-30T05:38:31;27.74;46.95
65040;HTU21D;51606;45.000;38.612;2023-09-30T05:40:57;28.05;46.44
65040;HTU21D;51606;45.000;38.612;2023-09-30T05:43:25;28.29;46.13
65040;HTU21D;51606;45.000;38.612;2023-09-30T05:45:53;28.41;45.87
65040;HTU21D;51606;45.000;38.612;2023-09-30T05:48:21;28.57;45.65
65040;HTU21D;51606;45.000;38.612;2023-09-30T05:50:47;28.79;45.36
65040;HTU21D;51606;45.000;38.612;2023-09-30T05:53:14;28.95;44.99
65040;HTU21D;51606;45.000;38.612;2023-09-30T05:55:41;28.89;44.91
65040;HTU21D;51606;45.000;38.612;2023-09-30T05:58:15;28.83;44.83
65040;HTU21D;51606;45.000;38.612;2023-09-30T06:00:45;28.79;44.83
65040;HTU21D;51606;45.000;38.612;2023-09-30T06:03:11;28.83;44.74
65040;HTU21D;51606;45.000;38.612;2023-09-30T06:05:41;28.78;44.75
65040;HTU21D;51606;45.000;38.612;2023-09-30T06:08:09;28.79;44.82
65040;HTU21D;51606;45.000;38.612;2023-09-30T06:10:42;28.68;45.06
65040;HTU21D;51606;45.000;38.612;2023-09-30T06:13:10;28.60;45.45
65040;HTU21D;51606;45.000;38.612;2023-09-30T06:15:40;28.48;45.80
65040;HTU21D;51606;45.000;38.612;2023-09-30T06:18:07;28.29;46.35
65040;HTU21D;51606;45.000;38.612;2023-09-30T06:20:36;28.16;46.79
65040;HTU21D;51606;45.000;38.612;2023-09-30T06:23:03;28.12;47.06
65040;HTU21D;51606;45.000;38.612;2023-09-30T06:25:29;28.09;47.26
65040;HTU21D;51606;45.000;38.612;2023-09-30T06:27:58;28.08;47.43
65040;HTU21D;51606;45.000;38.612;2023-09-30T06:30:26;28.26;47.32
65040;HTU21D;51606;45.000;38.612;2023-09-30T06:33:08;28.53;47.12
65040;HTU21D;51606;45.000;38.612;2023-09-30T06:35:37;28.80;46.89
65040;HTU21D;51606;45.000;38.612;2023-09-30T06:38:06;29.15;46.40
65040;HTU21D;51606;45.000;38.612;2023-09-30T06:40:36;29.31;45.86
65040;HTU21D;51606;45.000;38.612;2023-09-30T06:43:03;29.51;45.51
65040;HTU21D;51606;45.000;38.612;2023-09-30T06:45:31;29.80;45.08
65040;HTU21D;51606;45.000;38.612;2023-09-30T06:47:58;30.21;44.43
65040;HTU21D;51606;45.000;38.612;2023-09-30T06:50:25;30.38;43.60
65040;HTU21D;51606;45.000;38.612;2023-09-30T06:52:51;30.56;43.14
65040;HTU21D;51606;45.000;38.612;2023-09-30T06:55:20;30.91;42.30
65040;HTU21D;51606;45.000;38.612;2023-09-30T06:57:46;31.14;41.97
65040;HTU21D;51606;45.000;38.612;2023-09-30T07:00:14;31.46;41.54
65040;HTU21D;51606;45.000;38.612;2023-09-30T07:02:41;31.79;41.14
65040;HTU21D;51606;45.000;38.612;2023-09-30T07:05:11;32.05;40.63
65040;HTU21D;51606;45.000;38.612;2023-09-30T07:07:39;32.44;40.39
65040;HTU21D;51606;45.000;38.612;2023-09-30T07:10:06;32.74;39.87
65040;HTU21D;51606;45.000;38.612;2023-09-30T07:12:33;32.89;39.52
65040;HTU21D;51606;45.000;38.612;2023-09-30T07:15:06;32.67;39.17
65040;HTU21D;51606;45.000;38.612;2023-09-30T07:17:32;32.53;39.41
65040;HTU21D;51606;45.000;38.612;2023-09-30T07:20:00;32.87;39.19
65040;HTU21D;51606;45.000;38.612;2023-09-30T07:22:26;33.20;38.73
65040;HTU21D;51606;45.000;38.612;2023-09-30T07:24:52;33.19;38.56
65040;HTU21D;51606;45.000;38.612;2023-09-30T07:27:19;33.00;38.38
65040;HTU21D;51606;45.000;38.612;2023-09-30T07:29:45;32.82;38.42
65040;HTU21D;51606;45.000;38.612;2023-09-30T07:32:12;32.71;38.36
65040;HTU21D;51606;45.000;38.612;2023-09-30T07:34:39;32.76;38.17
65040;HTU21D;51606;45.000;38.612;2023-09-30T07:37:05;32.64;37.86
65040;HTU21D;51606;45.000;38.612;2023-09-30T07:39:32;32.72;38.05
65040;HTU21D;51606;45.000;38.612;2023-09-30T07:41:58;32.96;37.85
65040;HTU21D;51606;45.000;38.612;2023-09-30T07:44:27;33.11;37.62
65040;HTU21D;51606;45.000;38.612;2023-09-30T07:46:53;33.21;37.54
65040;HTU21D;51606;45.000;38.612;2023-09-30T07:49:20;33.19;37.29
65040;HTU21D;51606;45.000;38.612;2023-09-30T07:51:46;33.03;37.41
65040;HTU21D;51606;45.000;38.612;2023-09-30T07:54:13;33.06;37.52
65040;HTU21D;51606;45.000;38.612;2023-09-30T07:56:39;33.14;37.35
65040;HTU21D;51606;45.000;38.612;2023-09-30T07:59:05;33.21;37.33
65040;HTU21D;51606;45.000;38.612;2023-09-30T08:01:32;33.12;37.10
65040;HTU21D;51606;45.000;38.612;2023-09-30T08:03:58;32.81;37.24
65040;HTU21D;51606;45.000;38.612;2023-09-30T08:06:49;33.00;37.16
65040;HTU21D;51606;45.000;38.612;2023-09-30T08:09:16;33.09;37.02
65040;HTU21D;51606;45.000;38.612;2023-09-30T08:11:44;33.02;37.02
65040;HTU21D;51606;45.000;38.612;2023-09-30T08:14:11;32.96;37.11
65040;HTU21D;51606;45.000;38.612;2023-09-30T08:16:38;33.03;37.11
65040;HTU21D;51606;45.000;38.612;2023-09-30T08:19:04;33.20;36.96
65040;HTU21D;51606;45.000;38.612;2023-09-30T08:21:31;33.26;36.87
65040;HTU21D;51606;45.000;38.612;2023-09-30T08:23:57;33.35;36.75
65040;HTU21D;51606;45.000;38.612;2023-09-30T08:26:24;33.27;36.71
65040;HTU21D;51606;45.000;38.612;2023-09-30T08:28:50;33.08;36.81
65040;HTU21D;51606;45.000;38.612;2023-09-30T08:31:17;33.08;36.86
65040;HTU21D;51606;45.000;38.612;2023-09-30T08:33:43;33.15;36.79
65040;HTU21D;51606;45.000;38.612;2023-09-30T08:36:12;33.19;36.88
65040;HTU21D;51606;45.000;38.612;2023-09-30T08:38:40;33.19;36.67
65040;HTU21D;51606;45.000;38.612;2023-09-30T08:41:07;33.03;36.95
65040;HTU21D;51606;45.000;38.612;2023-09-30T08:43:39;32.93;36.85
65040;HTU21D;51606;45.000;38.612;2023-09-30T08:46:06;32.81;36.99
65040;HTU21D;51606;45.000;38.612;2023-09-30T08:48:34;32.75;37.08
65040;HTU21D;51606;45.000;38.612;2023-09-30T08:51:01;32.71;36.98
65040;HTU21D;51606;45.000;38.612;2023-09-30T09:04:50;32.14;37.47
65040;HTU21D;51606;45.000;38.612;2023-09-30T09:07:17;32.17;37.37
65040;HTU21D;51606;45.000;38.612;2023-09-30T09:10:12;32.11;37.21
65040;HTU21D;51606;45.000;38.612;2023-09-30T09:12:42;31.93;37.46
65040;HTU21D;51606;45.000;38.612;2023-09-30T09:15:22;31.93;37.37
65040;HTU21D;51606;45.000;38.612;2023-09-30T09:17:49;31.81;37.50
65040;HTU21D;51606;45.000;38.612;2023-09-30T09:20:19;31.74;37.60
65040;HTU21D;51606;45.000;38.612;2023-09-30T09:22:48;31.67;37.72
65040;HTU21D;51606;45.000;38.612;2023-09-30T09:25:16;31.61;37.61
65040;HTU21D;51606;45.000;38.612;2023-09-30T09:27:43;31.59;37.68
65040;HTU21D;51606;45.000;38.612;2023-09-30T09:33:04;31.52;37.58
65040;HTU21D;51606;45.000;38.612;2023-09-30T09:35:32;31.30;37.68
65040;HTU21D;51606;45.000;38.612;2023-09-30T09:38:03;31.08;37.75
65040;HTU21D;51606;45.000;38.612;2023-09-30T09:40:33;30.80;37.64
65040;HTU21D;51606;45.000;38.612;2023-09-30T09:43:00;30.34;37.77
65040;HTU21D;51606;45.000;38.612;2023-09-30T09:45:33;29.93;38.02
65040;HTU21D;51606;45.000;38.612;2023-09-30T09:48:00;29.61;38.22
65040;HTU21D;51606;45.000;38.612;2023-09-30T09:50:27;29.47;38.27
65040;HTU21D;51606;45.000;38.612;2023-09-30T09:52:54;29.28;38.22
65040;HTU21D;51606;45.000;38.612;2023-09-30T09:55:28;28.98;38.44
65040;HTU21D;51606;45.000;38.612;2023-09-30T09:57:56;28.78;38.59
65040;HTU21D;51606;45.000;38.612;2023-09-30T10:00:25;28.75;38.62
65040;HTU21D;51606;45.000;38.612;2023-09-30T10:02:52;28.68;38.59
65040;HTU21D;51606;45.000;38.612;2023-09-30T10:05:20;28.48;38.85
65040;HTU21D;51606;45.000;38.612;2023-09-30T10:08:07;28.34;39.09
65040;HTU21D;51606;45.000;38.612;2023-09-30T10:10:37;28.26;39.16
65040;HTU21D;51606;45.000;38.612;2023-09-30T10:13:05;28.19;39.17
65040;HTU21D;51606;45.000;38.612;2023-09-30T10:18:07;28.23;39.23
65040;HTU21D;51606;45.000;38.612;2023-09-30T10:20:40;28.19;39.26
65040;HTU21D;51606;45.000;38.612;2023-09-30T10:23:24;28.23;39.31
65040;HTU21D;51606;45.000;38.612;2023-09-30T10:26:13;28.15;39.36
65040;HTU21D;51606;45.000;38.612;2023-09-30T10:28:42;28.15;39.41
65040;HTU21D;51606;45.000;38.612;2023-09-30T10:31:17;28.06;39.45
65040;HTU21D;51606;45.000;38.612;2023-09-30T10:36:33;27.93;39.79
65040;HTU21D;51606;45.000;38.612;2023-09-30T10:39:00;27.97;39.83
65040;HTU21D;51606;45.000;38.612;2023-09-30T10:44:38;27.87;40.15
65040;HTU21D;51606;45.000;38.612;2023-09-30T10:49:50;28.16;39.79
65040;HTU21D;51606;45.000;38.612;2023-09-30T10:52:22;28.28;39.77
65040;HTU21D;51606;45.000;38.612;2023-09-30T10:54:50;28.29;39.76
65040;HTU21D;51606;45.000;38.612;2023-09-30T10:57:29;28.32;39.88
65040;HTU21D;51606;45.000;38.612;2023-09-30T11:00:09;28.33;40.03
65040;HTU21D;51606;45.000;38.612;2023-09-30T11:02:50;28.34;40.10
65040;HTU21D;51606;45.000;38.612;2023-09-30T11:05:18;28.37;40.06
65040;HTU21D;51606;45.000;38.612;2023-09-30T11:07:50;28.33;40.21
65040;HTU21D;51606;45.000;38.612;2023-09-30T11:10:18;28.29;40.35
65040;HTU21D;51606;45.000;38.612;2023-09-30T11:12:55;28.30;40.53
65040;HTU21D;51606;45.000;38.612;2023-09-30T11:15:22;28.41;40.42
65040;HTU21D;51606;45.000;38.612;2023-09-30T11:17:49;28.48;40.31
65040;HTU21D;51606;45.000;38.612;2023-09-30T11:20:17;28.46;40.39
65040;HTU21D;51606;45.000;38.612;2023-09-30T11:22:47;28.43;40.45
65040;HTU21D;51606;45.000;38.612;2023-09-30T11:25:16;28.34;40.57
65040;HTU21D;51606;45.000;38.612;2023-09-30T11:27:43;28.33;40.65
65040;HTU21D;51606;45.000;38.612;2023-09-30T11:30:11;28.28;40.78
65040;HTU21D;51606;45.000;38.612;2023-09-30T11:32:38;28.24;40.85
65040;HTU21D;51606;45.000;38.612;2023-09-30T11:35:23;28.29;40.91
65040;HTU21D;51606;45.000;38.612;2023-09-30T11:37:50;28.31;40.75
65040;HTU21D;51606;45.000;38.612;2023-09-30T11:40:18;28.19;40.86
65040;HTU21D;51606;45.000;38.612;2023-09-30T11:43:10;28.19;40.97
65040;HTU21D;51606;45.000;38.612;2023-09-30T11:45:38;28.24;40.86
65040;HTU21D;51606;45.000;38.612;2023-09-30T11:48:19;28.20;40.91
65040;HTU21D;51606;45.000;38.612;2023-09-30T11:50:48;28.18;40.97
65040;HTU21D;51606;45.000;38.612;2023-09-30T11:53:17;28.20;40.90
65040;HTU21D;51606;45.000;38.612;2023-09-30T11:55:44;28.20;40.93
65040;HTU21D;51606;45.000;38.612;2023-09-30T11:58:12;28.20;40.89
65040;HTU21D;51606;45.000;38.612;2023-09-30T12:00:44;28.16;40.88
65040;HTU21D;51606;45.000;38.612;2023-09-30T12:03:11;28.12;40.90
65040;HTU21D;51606;45.000;38.612;2023-09-30T12:05:38;28.03;41.04
65040;HTU21D;51606;45.000;38.612;2023-09-30T12:08:05;28.10;40.99
65040;HTU21D;51606;45.000;38.612;2023-09-30T12:10:33;28.17;40.95
65040;HTU21D;51606;45.000;38.612;2023-09-30T12:12:59;28.18;40.97
65040;HTU21D;51606;45.000;38.612;2023-09-30T12:15:25;28.20;40.98
65040;HTU21D;51606;45.000;38.612;2023-09-30T12:17:52;28.20;40.94
65040;HTU21D;51606;45.000;38.612;2023-09-30T12:20:19;28.12;41.03
65040;HTU21D;51606;45.000;38.612;2023-09-30T12:22:54;28.03;41.12
65040;HTU21D;51606;45.000;38.612;2023-09-30T12:25:20;28.04;41.09
65040;HTU21D;51606;45.000;38.612;2023-09-30T12:27:48;28.02;41.06
65040;HTU21D;51606;45.000;38.612;2023-09-30T12:30:15;27.99;41.08
65040;HTU21D;51606;45.000;38.612;2023-09-30T13:13:57;27.41;41.17
65040;HTU21D;51606;45.000;38.612;2023-09-30T13:16:23;27.38;41.34
65040;HTU21D;51606;45.000;38.612;2023-09-30T13:18:50;27.30;41.44
65040;HTU21D;51606;45.000;38.612;2023-09-30T13:21:18;27.27;41.52
65040;HTU21D;51606;45.000;38.612;2023-09-30T13:23:45;27.21;41.57
65040;HTU21D;51606;45.000;38.612;2023-09-30T13:26:12;27.17;41.63
65040;HTU21D;51606;45.000;38.612;2023-09-30T13:28:38;27.11;41.69
65040;HTU21D;51606;45.000;38.612;2023-09-30T13:31:05;27.05;41.76
65040;HTU21D;51606;45.000;38.612;2023-09-30T13:33:33;26.97;41.85
65040;HTU21D;51606;45.000;38.612;2023-09-30T13:35:59;26.92;41.92
65040;HTU21D;51606;45.000;38.612;2023-09-30T13:38:26;26.89;41.97
65040;HTU21D;51606;45.000;38.612;2023-09-30T13:40:53;26.82;42.06
65040;HTU21D;51606;45.000;38.612;2023-09-30T13:43:19;26.77;42.13
65040;HTU21D;51606;45.000;38.612;2023-09-30T13:45:46;26.70;42.23
65040;HTU21D;51606;45.000;38.612;2023-09-30T13:48:14;26.64;42.32
65040;HTU21D;51606;45.000;38.612;2023-09-30T13:50:40;26.56;42.45
65040;HTU21D;51606;45.000;38.612;2023-09-30T13:53:07;26.49;42.60
65040;HTU21D;51606;45.000;38.612;2023-09-30T13:55:38;26.41;42.74
65040;HTU21D;51606;45.000;38.612;2023-09-30T13:58:05;26.34;42.83
65040;HTU21D;51606;45.000;38.612;2023-09-30T14:00:31;26.25;42.96
65040;HTU21D;51606;45.000;38.612;2023-09-30T14:02:59;26.19;43.10
65040;HTU21D;51606;45.000;38.612;2023-09-30T14:05:29;26.11;43.24
65040;HTU21D;51606;45.000;38.612;2023-09-30T14:07:55;26.02;43.38
65040;HTU21D;51606;45.000;38.612;2023-09-30T14:10:21;25.91;43.53
65040;HTU21D;51606;45.000;38.612;2023-09-30T14:12:48;25.81;43.68
65040;HTU21D;51606;45.000;38.612;2023-09-30T14:15:14;25.73;43.85
65040;HTU21D;51606;45.000;38.612;2023-09-30T14:17:41;25.61;44.03
65040;HTU21D;51606;45.000;38.612;2023-09-30T14:20:08;25.50;44.22
65040;HTU21D;51606;45.000;38.612;2023-09-30T14:22:35;25.37;44.40
65040;HTU21D;51606;45.000;38.612;2023-09-30T14:25:01;25.28;44.59
65040;HTU21D;51606;45.000;38.612;2023-09-30T14:27:28;25.16;44.74
65040;HTU21D;51606;45.000;38.612;2023-09-30T14:29:55;25.05;44.90
65040;HTU21D;51606;45.000;38.612;2023-09-30T14:32:22;24.95;45.04
65040;HTU21D;51606;45.000;38.612;2023-09-30T14:34:49;24.84;45.19
65040;HTU21D;51606;45.000;38.612;2023-09-30T14:37:15;24.70;45.41
65040;HTU21D;51606;45.000;38.612;2023-09-30T14:39:43;24.54;45.69
65040;HTU21D;51606;45.000;38.612;2023-09-30T14:42:09;24.35;45.96
65040;HTU21D;51606;45.000;38.612;2023-09-30T14:44:36;24.19;46.21
65040;HTU21D;51606;45.000;38.612;2023-09-30T14:47:02;24.04;46.42
65040;HTU21D;51606;45.000;38.612;2023-09-30T14:49:33;23.90;46.64
65040;HTU21D;51606;45.000;38.612;2023-09-30T14:52:00;23.75;46.80
65040;HTU21D;51606;45.000;38.612;2023-09-30T14:54:26;23.66;46.87
65040;HTU21D;51606;45.000;38.612;2023-09-30T14:56:55;23.57;46.93
65040;HTU21D;51606;45.000;38.612;2023-09-30T14:59:22;23.47;47.05
65040;HTU21D;51606;45.000;38.612;2023-09-30T15:01:48;23.35;47.17
65040;HTU21D;51606;45.000;38.612;2023-09-30T15:04:15;23.20;47.33
65040;HTU21D;51606;45.000;38.612;2023-09-30T15:06:41;23.05;47.47
65040;HTU21D;51606;45.000;38.612;2023-09-30T15:09:08;22.90;47.58
65040;HTU21D;51606;45.000;38.612;2023-09-30T15:11:38;22.73;47.70
65040;HTU21D;51606;45.000;38.612;2023-09-30T15:14:04;22.65;47.72
65040;HTU21D;51606;45.000;38.612;2023-09-30T15:16:33;22.54;47.72
65040;HTU21D;51606;45.000;38.612;2023-09-30T15:19:00;22.44;47.72
65040;HTU21D;51606;45.000;38.612;2023-09-30T15:21:27;22.34;47.76
65040;HTU21D;51606;45.000;38.612;2023-09-30T15:23:53;22.26;47.74
65040;HTU21D;51606;45.000;38.612;2023-09-30T15:26:19;22.20;47.65
65040;HTU21D;51606;45.000;38.612;2023-09-30T15:28:46;22.14;47.58
65040;HTU21D;51606;45.000;38.612;2023-09-30T15:31:13;22.07;47.54
65040;HTU21D;51606;45.000;38.612;2023-09-30T15:33:40;21.99;47.52
65040;HTU21D;51606;45.000;38.612;2023-09-30T15:36:11;21.93;47.54
65040;HTU21D;51606;45.000;38.612;2023-09-30T15:38:38;21.85;47.50
65040;HTU21D;51606;45.000;38.612;2023-09-30T15:41:05;21.80;47.44
65040;HTU21D;51606;45.000;38.612;2023-09-30T15:43:33;21.70;47.48
65040;HTU21D;51606;45.000;38.612;2023-09-30T15:46:00;21.61;47.51
65040;HTU21D;51606;45.000;38.612;2023-09-30T15:48:27;21.50;47.56
65040;HTU21D;51606;45.000;38.612;2023-09-30T15:50:53;21.39;47.60
65040;HTU21D;51606;45.000;38.612;2023-09-30T15:53:19;21.30;47.63
65040;HTU21D;51606;45.000;38.612;2023-09-30T15:55:46;21.19;47.70
65040;HTU21D;51606;45.000;38.612;2023-09-30T15:58:12;21.11;47.73
65040;HTU21D;51606;45.000;38.612;2023-09-30T16:00:39;21.05;47.73
65040;HTU21D;51606;45.000;38.612;2023-09-30T16:03:07;21.00;47.70
65040;HTU21D;51606;45.000;38.612;2023-09-30T16:05:36;20.91;47.73
65040;HTU21D;51606;45.000;38.612;2023-09-30T16:08:07;20.85;47.75
65040;HTU21D;51606;45.000;38.612;2023-09-30T16:10:33;20.77;47.76
65040;HTU21D;51606;45.000;38.612;2023-09-30T16:53:58;19.30;48.24
65040;HTU21D;51606;45.000;38.612;2023-09-30T16:56:25;19.26;48.39
65040;HTU21D;51606;45.000;38.612;2023-09-30T16:58:52;19.20;48.52
65040;HTU21D;51606;45.000;38.612;2023-09-30T17:01:18;19.13;48.64
65040;HTU21D;51606;45.000;38.612;2023-09-30T17:03:46;19.11;48.71
65040;HTU21D;51606;45.000;38.612;2023-09-30T17:06:12;19.08;48.76
65040;HTU21D;51606;45.000;38.612;2023-09-30T17:08:38;19.05;48.79
65040;HTU21D;51606;45.000;38.612;2023-09-30T17:11:05;19.02;48.87
65040;HTU21D;51606;45.000;38.612;2023-09-30T17:13:32;19.00;48.88
65040;HTU21D;51606;45.000;38.612;2023-09-30T17:15:58;19.01;48.90
65040;HTU21D;51606;45.000;38.612;2023-09-30T17:18:24;18.98;48.89
65040;HTU21D;51606;45.000;38.612;2023-09-30T17:20:52;18.97;48.92
65040;HTU21D;51606;45.000;38.612;2023-09-30T17:23:19;18.95;48.93